sensor_id;sensor_type;location;lat;lon;timestamp;P1;durP1;ratioP1;P2;durP2;ratioP2
14251;SDS011;7210;51.502;10.722;2022-07-19T00:01:10;4.87;;;4.27;;
14251;SDS011;7210;51.502;10.722;2022-07-19T00:03:39;8.50;;;4.50;;
14251;SDS011;7210;51.502;10.722;2022-07-19T00:06:06;6.60;;;4.37;;
14251;SDS011;7210;51.502;10.722;2022-07-19T00:08:33;5.27;;;4.10;;
14251;SDS011;7210;51.502;10.722;2022-07-19T00:11:00;9.50;;;4.67;;
14251;SDS011;7210;51.502;10.722;2022-07-19T00:13:28;6.87;;;4.30;;
14251;SDS011;7210;51.502;10.722;2022-07-19T00:15:55;4.93;;;4.17;;
14251;SDS011;7210;51.502;10.722;2022-07-19T00:18:23;7.57;;;3.83;;
14251;SDS011;7210;51.502;10.722;2022-07-19T00:20:51;5.67;;;4.27;;
14251;SDS011;7210;51.502;10.722;2022-07-19T00:23:19;7.17;;;4.13;;
14251;SDS011;7210;51.502;10.722;2022-07-19T00:25:46;7.87;;;4.63;;
14251;SDS011;7210;51.502;10.722;2022-07-19T00:28:13;5.73;;;4.20;;
14251;SDS011;7210;51.502;10.722;2022-07-19T00:30:42;11.77;;;4.33;;
14251;SDS011;7210;51.502;10.722;2022-07-19T00:33:12;5.23;;;4.07;;
14251;SDS011;7210;51.502;10.722;2022-07-19T00:35:40;6.67;;;4.10;;
14251;SDS011;7210;51.502;10.722;2022-07-19T00:38:09;8.27;;;4.27;;
14251;SDS011;7210;51.502;10.722;2022-07-19T00:40:39;5.37;;;4.17;;
14251;SDS011;7210;51.502;10.722;2022-07-19T00:43:08;7.67;;;4.50;;
14251;SDS011;7210;51.502;10.722;2022-07-19T00:45:36;7.60;;;4.30;;
14251;SDS011;7210;51.502;10.722;2022-07-19T00:48:04;5.40;;;4.17;;
14251;SDS011;7210;51.502;10.722;2022-07-19T00:50:32;6.30;;;3.80;;
14251;SDS011;7210;51.502;10.722;2022-07-19T00:53:00;5.00;;;3.87;;
14251;SDS011;7210;51.502;10.722;2022-07-19T00:55:33;8.97;;;4.40;;
14251;SDS011;7210;51.502;10.722;2022-07-19T00:58:03;6.33;;;3.90;;
14251;SDS011;7210;51.502;10.722;2022-07-19T01:00:31;6.53;;;3.87;;
14251;SDS011;7210;51.502;10.722;2022-07-19T01:03:01;6.70;;;4.10;;
14251;SDS011;7210;51.502;10.722;2022-07-19T01:05:29;6.53;;;4.40;;
14251;SDS011;7210;51.502;10.722;2022-07-19T01:07:56;4.47;;;4.00;;
14251;SDS011;7210;51.502;10.722;2022-07-19T01:10:23;7.53;;;4.10;;
14251;SDS011;7210;51.502;10.722;2022-07-19T01:12:52;8.37;;;4.50;;
14251;SDS011;7210;51.502;10.722;2022-07-19T01:15:22;10.00;;;4.50;;
14251;SDS011;7210;51.502;10.722;2022-07-19T01:17:54;5.70;;;3.73;;
14251;SDS011;7210;51.502;10.722;2022-07-19T01:20:22;6.47;;;3.80;;
14251;SDS011;7210;51.502;10.722;2022-07-19T01:22:52;6.50;;;4.10;;
14251;SDS011;7210;51.502;10.722;2022-07-19T01:25:19;5.50;;;3.83;;
14251;SDS011;7210;51.502;10.722;2022-07-19T01:27:50;5.33;;;4.00;;
14251;SDS011;7210;51.502;10.722;2022-07-19T01:30:18;4.07;;;3.60;;
14251;SDS011;7210;51.502;10.722;2022-07-19T01:32:48;6.30;;;4.17;;
14251;SDS011;7210;51.502;10.722;2022-07-19T01:35:16;5.87;;;3.83;;
14251;SDS011;7210;51.502;10.722;2022-07-19T01:37:44;6.50;;;4.00;;
14251;SDS011;7210;51.502;10.722;2022-07-19T01:40:14;6.43;;;4.00;;
14251;SDS011;7210;51.502;10.722;2022-07-19T01:42:43;5.63;;;3.90;;
14251;SDS011;7210;51.502;10.722;2022-07-19T01:45:12;4.13;;;3.70;;
14251;SDS011;7210;51.502;10.722;2022-07-19T01:47:41;5.10;;;3.53;;
14251;SDS011;7210;51.502;10.722;2022-07-19T01:50:10;6.07;;;4.30;;
14251;SDS011;7210;51.502;10.722;2022-07-19T01:52:39;6.23;;;3.80;;
14251;SDS011;7210;51.502;10.722;2022-07-19T01:55:07;4.83;;;3.57;;
14251;SDS011;7210;51.502;10.722;2022-07-19T01:57:36;4.50;;;3.70;;
14251;SDS011;7210;51.502;10.722;2022-07-19T02:00:04;5.60;;;3.60;;
14251;SDS011;7210;51.502;10.722;2022-07-19T02:02:37;5.93;;;3.70;;
14251;SDS011;7210;51.502;10.722;2022-07-19T02:05:05;4.63;;;3.67;;
14251;SDS011;7210;51.502;10.722;2022-07-19T02:07:34;5.77;;;3.73;;
14251;SDS011;7210;51.502;10.722;2022-07-19T02:10:01;5.27;;;4.20;;
14251;SDS011;7210;51.502;10.722;2022-07-19T02:15:21;6.13;;;3.90;;
14251;SDS011;7210;51.502;10.722;2022-07-19T02:17:49;6.00;;;3.90;;
14251;SDS011;7210;51.502;10.722;2022-07-19T02:20:21;5.27;;;4.00;;
14251;SDS011;7210;51.502;10.722;2022-07-19T02:22:48;6.30;;;3.90;;
14251;SDS011;7210;51.502;10.722;2022-07-19T02:25:15;6.60;;;4.07;;
14251;SDS011;7210;51.502;10.722;2022-07-19T02:27:43;7.83;;;4.20;;
14251;SDS011;7210;51.502;10.722;2022-07-19T02:30:10;6.17;;;3.67;;
14251;SDS011;7210;51.502;10.722;2022-07-19T02:32:40;4.10;;;3.70;;
14251;SDS011;7210;51.502;10.722;2022-07-19T02:35:08;6.97;;;3.80;;
14251;SDS011;7210;51.502;10.722;2022-07-19T02:37:38;8.33;;;3.93;;
14251;SDS011;7210;51.502;10.722;2022-07-19T02:40:07;4.60;;;3.40;;
14251;SDS011;7210;51.502;10.722;2022-07-19T02:42:35;6.77;;;4.17;;
14251;SDS011;7210;51.502;10.722;2022-07-19T02:45:02;7.50;;;4.17;;
14251;SDS011;7210;51.502;10.722;2022-07-19T02:47:31;4.97;;;4.00;;
14251;SDS011;7210;51.502;10.722;2022-07-19T02:50:05;9.20;;;4.00;;
14251;SDS011;7210;51.502;10.722;2022-07-19T02:52:33;5.03;;;4.07;;
14251;SDS011;7210;51.502;10.722;2022-07-19T02:55:01;7.27;;;4.37;;
14251;SDS011;7210;51.502;10.722;2022-07-19T02:57:28;5.77;;;4.07;;
14251;SDS011;7210;51.502;10.722;2022-07-19T02:59:56;5.27;;;3.73;;
14251;SDS011;7210;51.502;10.722;2022-07-19T03:02:23;8.50;;;4.33;;
14251;SDS011;7210;51.502;10.722;2022-07-19T03:04:50;6.47;;;4.10;;
14251;SDS011;7210;51.502;10.722;2022-07-19T03:07:19;8.53;;;3.73;;
14251;SDS011;7210;51.502;10.722;2022-07-19T03:09:46;4.70;;;3.40;;
14251;SDS011;7210;51.502;10.722;2022-07-19T03:12:14;5.27;;;3.57;;
14251;SDS011;7210;51.502;10.722;2022-07-19T03:14:41;6.57;;;3.90;;
14251;SDS011;7210;51.502;10.722;2022-07-19T03:17:08;7.37;;;4.07;;
14251;SDS011;7210;51.502;10.722;2022-07-19T03:19:35;4.83;;;3.47;;
14251;SDS011;7210;51.502;10.722;2022-07-19T03:22:02;4.50;;;3.80;;
14251;SDS011;7210;51.502;10.722;2022-07-19T03:24:31;6.60;;;3.70;;
14251;SDS011;7210;51.502;10.722;2022-07-19T03:26:58;4.00;;;3.60;;
14251;SDS011;7210;51.502;10.722;2022-07-19T03:29:26;5.47;;;3.50;;
14251;SDS011;7210;51.502;10.722;2022-07-19T03:31:53;5.73;;;3.53;;
14251;SDS011;7210;51.502;10.722;2022-07-19T03:34:20;5.43;;;3.90;;
14251;SDS011;7210;51.502;10.722;2022-07-19T03:36:47;4.40;;;3.80;;
14251;SDS011;7210;51.502;10.722;2022-07-19T03:39:14;5.30;;;4.20;;
14251;SDS011;7210;51.502;10.722;2022-07-19T03:41:43;4.57;;;3.83;;
14251;SDS011;7210;51.502;10.722;2022-07-19T03:44:10;5.70;;;4.00;;
14251;SDS011;7210;51.502;10.722;2022-07-19T03:46:38;6.70;;;3.70;;
14251;SDS011;7210;51.502;10.722;2022-07-19T03:49:05;6.80;;;3.60;;
14251;SDS011;7210;51.502;10.722;2022-07-19T03:51:39;7.17;;;4.60;;
14251;SDS011;7210;51.502;10.722;2022-07-19T03:54:06;6.60;;;3.80;;
14251;SDS011;7210;51.502;10.722;2022-07-19T03:56:33;7.03;;;4.00;;
14251;SDS011;7210;51.502;10.722;2022-07-19T03:59:02;5.83;;;3.70;;
14251;SDS011;7210;51.502;10.722;2022-07-19T04:01:30;7.87;;;4.00;;
14251;SDS011;7210;51.502;10.722;2022-07-19T04:03:57;3.83;;;3.27;;
14251;SDS011;7210;51.502;10.722;2022-07-19T04:06:24;6.07;;;3.47;;
14251;SDS011;7210;51.502;10.722;2022-07-19T04:08:51;7.47;;;3.77;;
14251;SDS011;7210;51.502;10.722;2022-07-19T04:11:19;4.13;;;3.73;;
14251;SDS011;7210;51.502;10.722;2022-07-19T04:13:46;6.53;;;3.60;;
14251;SDS011;7210;51.502;10.722;2022-07-19T04:16:14;11.50;;;4.47;;
14251;SDS011;7210;51.502;10.722;2022-07-19T04:18:42;13.90;;;4.33;;
14251;SDS011;7210;51.502;10.722;2022-07-19T04:21:09;6.57;;;3.97;;
14251;SDS011;7210;51.502;10.722;2022-07-19T04:23:36;4.90;;;3.93;;
14251;SDS011;7210;51.502;10.722;2022-07-19T04:26:04;7.23;;;3.77;;
14251;SDS011;7210;51.502;10.722;2022-07-19T04:28:31;8.03;;;4.50;;
14251;SDS011;7210;51.502;10.722;2022-07-19T04:30:58;17.30;;;15.50;;
14251;SDS011;7210;51.502;10.722;2022-07-19T04:33:27;24.87;;;22.43;;
14251;SDS011;7210;51.502;10.722;2022-07-19T04:35:54;40.97;;;36.57;;
14251;SDS011;7210;51.502;10.722;2022-07-19T04:38:21;38.13;;;32.80;;
14251;SDS011;7210;51.502;10.722;2022-07-19T04:40:50;17.10;;;13.77;;
14251;SDS011;7210;51.502;10.722;2022-07-19T04:43:19;14.80;;;8.53;;
14251;SDS011;7210;51.502;10.722;2022-07-19T04:45:51;26.40;;;23.20;;
14251;SDS011;7210;51.502;10.722;2022-07-19T04:48:18;21.53;;;19.00;;
14251;SDS011;7210;51.502;10.722;2022-07-19T04:50:47;19.50;;;16.30;;
14251;SDS011;7210;51.502;10.722;2022-07-19T04:53:14;9.17;;;6.97;;
14251;SDS011;7210;51.502;10.722;2022-07-19T04:55:41;8.43;;;5.37;;
14251;SDS011;7210;51.502;10.722;2022-07-19T04:58:09;8.93;;;7.87;;
14251;SDS011;7210;51.502;10.722;2022-07-19T05:00:39;11.43;;;10.40;;
14251;SDS011;7210;51.502;10.722;2022-07-19T05:03:07;13.90;;;12.60;;
14251;SDS011;7210;51.502;10.722;2022-07-19T05:05:34;7.97;;;5.40;;
14251;SDS011;7210;51.502;10.722;2022-07-19T05:08:04;6.97;;;6.37;;
14251;SDS011;7210;51.502;10.722;2022-07-19T05:10:31;9.03;;;7.90;;
14251;SDS011;7210;51.502;10.722;2022-07-19T05:12:58;21.77;;;19.37;;
14251;SDS011;7210;51.502;10.722;2022-07-19T05:15:26;13.40;;;12.10;;
14251;SDS011;7210;51.502;10.722;2022-07-19T05:17:53;11.73;;;7.20;;
14251;SDS011;7210;51.502;10.722;2022-07-19T05:20:20;11.57;;;7.83;;
14251;SDS011;7210;51.502;10.722;2022-07-19T05:22:48;5.37;;;4.63;;
14251;SDS011;7210;51.502;10.722;2022-07-19T05:25:17;11.70;;;5.43;;
14251;SDS011;7210;51.502;10.722;2022-07-19T05:27:44;8.77;;;7.10;;
14251;SDS011;7210;51.502;10.722;2022-07-19T05:30:11;14.27;;;9.50;;
14251;SDS011;7210;51.502;10.722;2022-07-19T05:32:39;7.33;;;5.60;;
14251;SDS011;7210;51.502;10.722;2022-07-19T05:35:07;10.00;;;7.00;;
14251;SDS011;7210;51.502;10.722;2022-07-19T05:37:35;8.40;;;4.77;;
14251;SDS011;7210;51.502;10.722;2022-07-19T05:40:02;6.30;;;4.17;;
14251;SDS011;7210;51.502;10.722;2022-07-19T05:42:32;7.37;;;4.97;;
14251;SDS011;7210;51.502;10.722;2022-07-19T05:44:59;9.17;;;5.57;;
14251;SDS011;7210;51.502;10.722;2022-07-19T05:47:26;8.37;;;5.27;;
14251;SDS011;7210;51.502;10.722;2022-07-19T05:49:57;8.30;;;4.90;;
14251;SDS011;7210;51.502;10.722;2022-07-19T05:52:24;8.57;;;4.70;;
14251;SDS011;7210;51.502;10.722;2022-07-19T05:54:51;4.27;;;3.47;;
14251;SDS011;7210;51.502;10.722;2022-07-19T05:57:18;5.93;;;3.80;;
14251;SDS011;7210;51.502;10.722;2022-07-19T05:59:47;5.30;;;3.53;;
14251;SDS011;7210;51.502;10.722;2022-07-19T06:02:14;6.17;;;3.77;;
14251;SDS011;7210;51.502;10.722;2022-07-19T06:04:42;6.00;;;3.63;;
14251;SDS011;7210;51.502;10.722;2022-07-19T06:07:09;9.33;;;5.30;;
14251;SDS011;7210;51.502;10.722;2022-07-19T06:09:37;5.23;;;3.53;;
14251;SDS011;7210;51.502;10.722;2022-07-19T06:12:04;9.97;;;3.47;;
14251;SDS011;7210;51.502;10.722;2022-07-19T06:14:32;8.70;;;3.87;;
14251;SDS011;7210;51.502;10.722;2022-07-19T06:17:00;5.70;;;3.53;;
14251;SDS011;7210;51.502;10.722;2022-07-19T06:19:28;4.80;;;3.30;;
14251;SDS011;7210;51.502;10.722;2022-07-19T06:21:55;6.33;;;3.30;;
14251;SDS011;7210;51.502;10.722;2022-07-19T06:24:22;6.30;;;3.67;;
14251;SDS011;7210;51.502;10.722;2022-07-19T06:26:49;5.50;;;3.10;;
14251;SDS011;7210;51.502;10.722;2022-07-19T06:29:16;4.80;;;3.23;;
14251;SDS011;7210;51.502;10.722;2022-07-19T06:31:44;7.77;;;3.50;;
14251;SDS011;7210;51.502;10.722;2022-07-19T06:34:12;5.53;;;3.40;;
14251;SDS011;7210;51.502;10.722;2022-07-19T06:36:40;4.87;;;2.90;;
14251;SDS011;7210;51.502;10.722;2022-07-19T06:39:07;3.37;;;2.60;;
14251;SDS011;7210;51.502;10.722;2022-07-19T06:41:34;7.03;;;2.97;;
14251;SDS011;7210;51.502;10.722;2022-07-19T06:44:02;5.50;;;3.70;;
14251;SDS011;7210;51.502;10.722;2022-07-19T06:46:30;6.07;;;3.20;;
14251;SDS011;7210;51.502;10.722;2022-07-19T06:48:57;6.07;;;3.07;;
14251;SDS011;7210;51.502;10.722;2022-07-19T06:51:26;5.17;;;2.83;;
14251;SDS011;7210;51.502;10.722;2022-07-19T06:53:53;2.77;;;2.30;;
14251;SDS011;7210;51.502;10.722;2022-07-19T06:56:21;3.63;;;2.53;;
14251;SDS011;7210;51.502;10.722;2022-07-19T06:58:48;3.47;;;2.60;;
14251;SDS011;7210;51.502;10.722;2022-07-19T07:01:15;2.80;;;2.20;;
14251;SDS011;7210;51.502;10.722;2022-07-19T07:03:44;3.87;;;2.50;;
14251;SDS011;7210;51.502;10.722;2022-07-19T07:06:12;5.57;;;2.50;;
14251;SDS011;7210;51.502;10.722;2022-07-19T07:08:40;3.80;;;2.60;;
14251;SDS011;7210;51.502;10.722;2022-07-19T07:11:07;4.70;;;2.60;;
14251;SDS011;7210;51.502;10.722;2022-07-19T07:13:35;7.50;;;3.00;;
14251;SDS011;7210;51.502;10.722;2022-07-19T07:16:02;3.83;;;2.47;;
14251;SDS011;7210;51.502;10.722;2022-07-19T07:18:30;7.87;;;6.30;;
14251;SDS011;7210;51.502;10.722;2022-07-19T07:20:57;8.47;;;6.20;;
14251;SDS011;7210;51.502;10.722;2022-07-19T07:23:25;6.13;;;2.80;;
14251;SDS011;7210;51.502;10.722;2022-07-19T07:25:53;4.43;;;3.10;;
14251;SDS011;7210;51.502;10.722;2022-07-19T07:28:21;3.70;;;3.07;;
14251;SDS011;7210;51.502;10.722;2022-07-19T07:30:48;9.17;;;5.17;;
14251;SDS011;7210;51.502;10.722;2022-07-19T07:33:15;4.90;;;3.53;;
14251;SDS011;7210;51.502;10.722;2022-07-19T07:35:42;4.37;;;3.20;;
14251;SDS011;7210;51.502;10.722;2022-07-19T07:38:10;8.30;;;3.23;;
14251;SDS011;7210;51.502;10.722;2022-07-19T07:40:37;4.10;;;2.70;;
14251;SDS011;7210;51.502;10.722;2022-07-19T07:43:06;4.77;;;2.73;;
14251;SDS011;7210;51.502;10.722;2022-07-19T07:45:33;5.13;;;3.27;;
14251;SDS011;7210;51.502;10.722;2022-07-19T07:48:00;5.70;;;3.40;;
14251;SDS011;7210;51.502;10.722;2022-07-19T07:50:27;3.97;;;3.57;;
14251;SDS011;7210;51.502;10.722;2022-07-19T07:52:55;2.93;;;2.27;;
14251;SDS011;7210;51.502;10.722;2022-07-19T07:55:22;3.43;;;2.53;;
14251;SDS011;7210;51.502;10.722;2022-07-19T07:57:49;5.43;;;2.70;;
14251;SDS011;7210;51.502;10.722;2022-07-19T08:00:18;5.70;;;2.77;;
14251;SDS011;7210;51.502;10.722;2022-07-19T08:02:45;2.70;;;2.50;;
14251;SDS011;7210;51.502;10.722;2022-07-19T08:05:14;4.30;;;2.90;;
14251;SDS011;7210;51.502;10.722;2022-07-19T08:07:42;3.90;;;2.63;;
14251;SDS011;7210;51.502;10.722;2022-07-19T08:10:11;5.78;;;2.88;;
14251;SDS011;7210;51.502;10.722;2022-07-19T08:12:44;6.78;;;2.90;;
14251;SDS011;7210;51.502;10.722;2022-07-19T08:15:12;6.38;;;2.55;;
14251;SDS011;7210;51.502;10.722;2022-07-19T08:17:40;3.38;;;2.50;;
14251;SDS011;7210;51.502;10.722;2022-07-19T08:20:08;3.65;;;2.60;;
14251;SDS011;7210;51.502;10.722;2022-07-19T08:22:36;4.93;;;2.50;;
14251;SDS011;7210;51.502;10.722;2022-07-19T08:25:03;4.50;;;2.67;;
14251;SDS011;7210;51.502;10.722;2022-07-19T08:27:32;3.13;;;2.35;;
14251;SDS011;7210;51.502;10.722;2022-07-19T08:29:59;3.63;;;2.40;;
14251;SDS011;7210;51.502;10.722;2022-07-19T08:32:26;2.75;;;2.55;;
14251;SDS011;7210;51.502;10.722;2022-07-19T08:34:55;4.05;;;2.50;;
14251;SDS011;7210;51.502;10.722;2022-07-19T08:37:22;3.70;;;2.63;;
14251;SDS011;7210;51.502;10.722;2022-07-19T08:39:49;3.22;;;2.45;;
14251;SDS011;7210;51.502;10.722;2022-07-19T08:42:18;4.75;;;2.20;;
14251;SDS011;7210;51.502;10.722;2022-07-19T08:44:46;3.35;;;3.05;;
14251;SDS011;7210;51.502;10.722;2022-07-19T08:47:17;6.55;;;2.35;;
14251;SDS011;7210;51.502;10.722;2022-07-19T08:49:46;2.65;;;2.40;;
14251;SDS011;7210;51.502;10.722;2022-07-19T08:52:16;2.67;;;2.30;;
14251;SDS011;7210;51.502;10.722;2022-07-19T08:54:45;5.07;;;2.38;;
14251;SDS011;7210;51.502;10.722;2022-07-19T08:57:13;4.22;;;2.45;;
14251;SDS011;7210;51.502;10.722;2022-07-19T08:59:57;3.65;;;2.75;;
14251;SDS011;7210;51.502;10.722;2022-07-19T09:02:27;4.28;;;2.28;;
14251;SDS011;7210;51.502;10.722;2022-07-19T09:05:00;4.90;;;2.80;;
14251;SDS011;7210;51.502;10.722;2022-07-19T09:07:32;4.65;;;2.50;;
14251;SDS011;7210;51.502;10.722;2022-07-19T09:10:15;6.10;;;2.70;;
14251;SDS011;7210;51.502;10.722;2022-07-19T09:12:58;2.50;;;2.30;;
14251;SDS011;7210;51.502;10.722;2022-07-19T09:15:37;2.85;;;2.30;;
14251;SDS011;7210;51.502;10.722;2022-07-19T09:18:09;4.45;;;2.58;;
14251;SDS011;7210;51.502;10.722;2022-07-19T09:20:39;4.95;;;2.15;;
14251;SDS011;7210;51.502;10.722;2022-07-19T09:23:08;6.72;;;2.50;;
14251;SDS011;7210;51.502;10.722;2022-07-19T09:25:37;3.70;;;2.35;;
14251;SDS011;7210;51.502;10.722;2022-07-19T09:28:06;3.08;;;2.60;;
14251;SDS011;7210;51.502;10.722;2022-07-19T09:30:36;4.10;;;2.65;;
14251;SDS011;7210;51.502;10.722;2022-07-19T09:33:07;3.13;;;2.38;;
14251;SDS011;7210;51.502;10.722;2022-07-19T09:35:39;3.20;;;2.25;;
14251;SDS011;7210;51.502;10.722;2022-07-19T09:38:17;4.05;;;2.80;;
14251;SDS011;7210;51.502;10.722;2022-07-19T09:40:50;6.10;;;2.67;;
14251;SDS011;7210;51.502;10.722;2022-07-19T09:43:20;3.83;;;2.60;;
14251;SDS011;7210;51.502;10.722;2022-07-19T09:45:51;2.80;;;2.45;;
14251;SDS011;7210;51.502;10.722;2022-07-19T09:48:19;2.53;;;2.20;;
14251;SDS011;7210;51.502;10.722;2022-07-19T09:50:46;4.15;;;2.30;;
14251;SDS011;7210;51.502;10.722;2022-07-19T09:53:14;3.25;;;2.35;;
14251;SDS011;7210;51.502;10.722;2022-07-19T09:55:45;2.75;;;2.40;;
14251;SDS011;7210;51.502;10.722;2022-07-19T09:58:14;4.38;;;2.40;;
14251;SDS011;7210;51.502;10.722;2022-07-19T10:00:44;2.47;;;2.13;;
14251;SDS011;7210;51.502;10.722;2022-07-19T10:03:11;4.70;;;2.25;;
14251;SDS011;7210;51.502;10.722;2022-07-19T10:05:42;2.22;;;2.00;;
14251;SDS011;7210;51.502;10.722;2022-07-19T10:08:10;2.80;;;2.08;;
14251;SDS011;7210;51.502;10.722;2022-07-19T10:10:39;3.88;;;2.20;;
14251;SDS011;7210;51.502;10.722;2022-07-19T10:13:06;3.28;;;2.05;;
14251;SDS011;7210;51.502;10.722;2022-07-19T10:15:35;4.65;;;1.92;;
14251;SDS011;7210;51.502;10.722;2022-07-19T10:18:14;7.68;;;2.38;;
14251;SDS011;7210;51.502;10.722;2022-07-19T10:20:45;2.00;;;1.80;;
14251;SDS011;7210;51.502;10.722;2022-07-19T10:23:14;2.65;;;2.13;;
14251;SDS011;7210;51.502;10.722;2022-07-19T10:25:43;6.13;;;2.15;;
14251;SDS011;7210;51.502;10.722;2022-07-19T10:31:02;2.45;;;2.10;;
14251;SDS011;7210;51.502;10.722;2022-07-19T10:33:57;2.35;;;2.00;;
14251;SDS011;7210;51.502;10.722;2022-07-19T10:36:33;4.32;;;2.05;;
14251;SDS011;7210;51.502;10.722;2022-07-19T10:39:22;2.90;;;2.25;;
14251;SDS011;7210;51.502;10.722;2022-07-19T10:42:08;2.60;;;1.80;;
14251;SDS011;7210;51.502;10.722;2022-07-19T10:50:49;5.22;;;2.22;;
14251;SDS011;7210;51.502;10.722;2022-07-19T10:56:34;4.20;;;2.08;;
14251;SDS011;7210;51.502;10.722;2022-07-19T10:59:06;4.30;;;2.08;;
14251;SDS011;7210;51.502;10.722;2022-07-19T11:01:36;4.50;;;2.17;;
14251;SDS011;7210;51.502;10.722;2022-07-19T11:04:21;4.10;;;2.55;;
14251;SDS011;7210;51.502;10.722;2022-07-19T11:09:41;3.35;;;2.05;;
14251;SDS011;7210;51.502;10.722;2022-07-19T11:12:21;3.47;;;2.40;;
14251;SDS011;7210;51.502;10.722;2022-07-19T11:14:52;3.40;;;2.70;;
14251;SDS011;7210;51.502;10.722;2022-07-19T11:17:21;3.10;;;2.53;;
14251;SDS011;7210;51.502;10.722;2022-07-19T11:22:44;5.15;;;2.50;;
14251;SDS011;7210;51.502;10.722;2022-07-19T11:25:14;4.05;;;2.30;;
14251;SDS011;7210;51.502;10.722;2022-07-19T11:27:49;6.45;;;2.67;;
14251;SDS011;7210;51.502;10.722;2022-07-19T11:30:17;3.97;;;2.60;;
14251;SDS011;7210;51.502;10.722;2022-07-19T11:32:50;4.80;;;2.55;;
14251;SDS011;7210;51.502;10.722;2022-07-19T11:35:19;3.30;;;2.70;;
14251;SDS011;7210;51.502;10.722;2022-07-19T11:37:46;6.05;;;2.50;;
14251;SDS011;7210;51.502;10.722;2022-07-19T11:40:14;3.28;;;2.45;;
14251;SDS011;7210;51.502;10.722;2022-07-19T11:42:42;2.90;;;2.25;;
14251;SDS011;7210;51.502;10.722;2022-07-19T11:45:13;3.63;;;2.30;;
14251;SDS011;7210;51.502;10.722;2022-07-19T11:47:45;3.67;;;2.60;;
14251;SDS011;7210;51.502;10.722;2022-07-19T11:50:14;3.38;;;2.20;;
14251;SDS011;7210;51.502;10.722;2022-07-19T11:52:44;3.65;;;2.45;;
14251;SDS011;7210;51.502;10.722;2022-07-19T11:55:18;4.00;;;2.55;;
14251;SDS011;7210;51.502;10.722;2022-07-19T11:57:49;2.88;;;2.50;;
14251;SDS011;7210;51.502;10.722;2022-07-19T12:00:18;4.00;;;2.30;;
14251;SDS011;7210;51.502;10.722;2022-07-19T12:02:51;5.07;;;2.30;;
14251;SDS011;7210;51.502;10.722;2022-07-19T12:05:22;2.85;;;2.50;;
14251;SDS011;7210;51.502;10.722;2022-07-19T12:07:50;3.30;;;2.40;;
14251;SDS011;7210;51.502;10.722;2022-07-19T12:10:38;4.03;;;2.50;;
14251;SDS011;7210;51.502;10.722;2022-07-19T12:13:10;5.72;;;2.67;;
14251;SDS011;7210;51.502;10.722;2022-07-19T12:15:42;3.08;;;2.22;;
14251;SDS011;7210;51.502;10.722;2022-07-19T12:18:21;2.80;;;2.50;;
14251;SDS011;7210;51.502;10.722;2022-07-19T12:21:16;4.60;;;2.35;;
14251;SDS011;7210;51.502;10.722;2022-07-19T12:24:15;7.85;;;2.55;;
14251;SDS011;7210;51.502;10.722;2022-07-19T12:26:59;5.80;;;2.20;;
14251;SDS011;7210;51.502;10.722;2022-07-19T12:29:31;4.30;;;2.30;;
14251;SDS011;7210;51.502;10.722;2022-07-19T12:32:02;7.15;;;2.75;;
14251;SDS011;7210;51.502;10.722;2022-07-19T12:34:43;4.10;;;2.45;;
14251;SDS011;7210;51.502;10.722;2022-07-19T12:37:19;3.95;;;2.55;;
14251;SDS011;7210;51.502;10.722;2022-07-19T12:39:55;2.85;;;2.17;;
14251;SDS011;7210;51.502;10.722;2022-07-19T12:42:35;4.03;;;3.05;;
14251;SDS011;7210;51.502;10.722;2022-07-19T12:45:09;2.58;;;2.03;;
14251;SDS011;7210;51.502;10.722;2022-07-19T12:47:39;4.10;;;2.35;;
14251;SDS011;7210;51.502;10.722;2022-07-19T12:50:09;4.47;;;2.40;;
14251;SDS011;7210;51.502;10.722;2022-07-19T12:52:46;6.65;;;2.60;;
14251;SDS011;7210;51.502;10.722;2022-07-19T12:55:14;5.32;;;2.30;;
14251;SDS011;7210;51.502;10.722;2022-07-19T12:57:41;4.75;;;2.30;;
14251;SDS011;7210;51.502;10.722;2022-07-19T13:00:08;3.55;;;2.72;;
14251;SDS011;7210;51.502;10.722;2022-07-19T13:02:37;2.40;;;2.20;;
14251;SDS011;7210;51.502;10.722;2022-07-19T13:05:05;2.80;;;2.22;;
14251;SDS011;7210;51.502;10.722;2022-07-19T13:07:34;3.95;;;2.20;;
14251;SDS011;7210;51.502;10.722;2022-07-19T13:10:01;2.30;;;2.10;;
14251;SDS011;7210;51.502;10.722;2022-07-19T13:12:29;4.32;;;2.50;;
14251;SDS011;7210;51.502;10.722;2022-07-19T13:14:56;6.40;;;2.70;;
14251;SDS011;7210;51.502;10.722;2022-07-19T13:17:24;4.13;;;2.20;;
14251;SDS011;7210;51.502;10.722;2022-07-19T13:19:51;3.47;;;2.25;;
14251;SDS011;7210;51.502;10.722;2022-07-19T13:22:18;3.47;;;2.15;;
14251;SDS011;7210;51.502;10.722;2022-07-19T13:24:47;6.25;;;2.40;;
14251;SDS011;7210;51.502;10.722;2022-07-19T13:27:14;3.40;;;2.40;;
14251;SDS011;7210;51.502;10.722;2022-07-19T13:29:42;2.45;;;2.25;;
14251;SDS011;7210;51.502;10.722;2022-07-19T13:32:10;4.18;;;2.05;;
14251;SDS011;7210;51.502;10.722;2022-07-19T13:34:38;5.15;;;2.40;;
14251;SDS011;7210;51.502;10.722;2022-07-19T13:37:05;5.57;;;2.10;;
14251;SDS011;7210;51.502;10.722;2022-07-19T13:39:32;2.35;;;2.17;;
14251;SDS011;7210;51.502;10.722;2022-07-19T13:42:01;5.03;;;2.17;;
14251;SDS011;7210;51.502;10.722;2022-07-19T13:44:29;3.00;;;2.00;;
14251;SDS011;7210;51.502;10.722;2022-07-19T13:46:56;3.65;;;2.42;;
14251;SDS011;7210;51.502;10.722;2022-07-19T13:49:24;3.75;;;2.10;;
14251;SDS011;7210;51.502;10.722;2022-07-19T13:51:52;2.63;;;2.30;;
14251;SDS011;7210;51.502;10.722;2022-07-19T13:54:20;2.47;;;2.28;;
14251;SDS011;7210;51.502;10.722;2022-07-19T13:56:47;4.88;;;2.40;;
14251;SDS011;7210;51.502;10.722;2022-07-19T13:59:16;3.35;;;2.58;;
14251;SDS011;7210;51.502;10.722;2022-07-19T14:01:44;4.85;;;2.40;;
14251;SDS011;7210;51.502;10.722;2022-07-19T14:04:12;4.18;;;2.30;;
14251;SDS011;7210;51.502;10.722;2022-07-19T14:06:39;5.43;;;2.33;;
14251;SDS011;7210;51.502;10.722;2022-07-19T14:09:07;4.03;;;2.40;;
14251;SDS011;7210;51.502;10.722;2022-07-19T14:11:35;2.95;;;2.40;;
14251;SDS011;7210;51.502;10.722;2022-07-19T14:14:02;3.33;;;2.22;;
14251;SDS011;7210;51.502;10.722;2022-07-19T14:16:32;3.80;;;2.40;;
14251;SDS011;7210;51.502;10.722;2022-07-19T14:18:59;5.25;;;2.38;;
14251;SDS011;7210;51.502;10.722;2022-07-19T14:21:26;2.90;;;2.20;;
14251;SDS011;7210;51.502;10.722;2022-07-19T14:23:57;5.35;;;2.45;;
14251;SDS011;7210;51.502;10.722;2022-07-19T14:26:24;3.83;;;2.20;;
14251;SDS011;7210;51.502;10.722;2022-07-19T14:28:51;2.30;;;2.10;;
14251;SDS011;7210;51.502;10.722;2022-07-19T14:31:19;4.75;;;2.47;;
14251;SDS011;7210;51.502;10.722;2022-07-19T14:33:47;4.55;;;2.58;;
14251;SDS011;7210;51.502;10.722;2022-07-19T14:36:14;2.78;;;2.25;;
14251;SDS011;7210;51.502;10.722;2022-07-19T14:38:42;4.07;;;2.22;;
14251;SDS011;7210;51.502;10.722;2022-07-19T14:41:09;5.43;;;2.17;;
14251;SDS011;7210;51.502;10.722;2022-07-19T14:43:36;3.47;;;2.20;;
14251;SDS011;7210;51.502;10.722;2022-07-19T14:46:04;7.47;;;2.45;;
14251;SDS011;7210;51.502;10.722;2022-07-19T14:48:32;2.53;;;2.00;;
14251;SDS011;7210;51.502;10.722;2022-07-19T14:51:00;2.05;;;1.95;;
14251;SDS011;7210;51.502;10.722;2022-07-19T14:53:29;4.07;;;2.33;;
14251;SDS011;7210;51.502;10.722;2022-07-19T14:55:56;2.20;;;2.00;;
14251;SDS011;7210;51.502;10.722;2022-07-19T14:58:24;3.75;;;2.38;;
14251;SDS011;7210;51.502;10.722;2022-07-19T15:00:51;4.05;;;2.20;;
14251;SDS011;7210;51.502;10.722;2022-07-19T15:03:19;4.85;;;2.40;;
14251;SDS011;7210;51.502;10.722;2022-07-19T15:05:46;2.90;;;2.25;;
14251;SDS011;7210;51.502;10.722;2022-07-19T15:08:15;3.13;;;2.08;;
14251;SDS011;7210;51.502;10.722;2022-07-19T15:10:42;2.78;;;2.10;;
14251;SDS011;7210;51.502;10.722;2022-07-19T15:13:09;4.35;;;2.28;;
14251;SDS011;7210;51.502;10.722;2022-07-19T15:15:36;6.25;;;2.63;;
14251;SDS011;7210;51.502;10.722;2022-07-19T15:18:03;2.88;;;2.20;;